createdAt,value
2017-07-10T00:01:50.167Z,20.20
2017-07-10T00:04:19.144Z,20.30
2017-07-10T00:06:47.376Z,20.30
2017-07-10T00:09:15.590Z,20.40
2017-07-10T00:11:43.787Z,20.40
2017-07-10T00:14:12.008Z,20.30
2017-07-10T00:16:40.215Z,20.20
2017-07-10T00:19:08.423Z,20.10
2017-07-10T00:21:36.632Z,20.00
2017-07-10T00:24:04.834Z,19.90
2017-07-10T00:26:33.155Z,19.90
2017-07-10T00:29:02.118Z,20.00
2017-07-10T00:31:30.341Z,19.90
2017-07-10T00:33:58.538Z,20.10
2017-07-10T00:36:26.748Z,20.10
2017-07-10T00:38:54.970Z,20.20
2017-07-10T00:41:23.240Z,20.30
2017-07-10T00:43:51.544Z,20.30
2017-07-10T00:46:19.767Z,20.30
2017-07-10T00:48:48.058Z,20.20
2017-07-10T00:51:16.327Z,20.20
2017-07-10T00:53:45.306Z,20.20
2017-07-10T00:56:13.513Z,20.10
2017-07-10T00:58:42.491Z,20.10
2017-07-10T01:01:10.689Z,20.10
2017-07-10T01:03:38.895Z,20.10
2017-07-10T01:06:07.233Z,20.00
2017-07-10T01:08:35.511Z,20.00
2017-07-10T01:11:03.771Z,20.00
2017-07-10T01:13:32.075Z,20.00
2017-07-10T01:16:01.034Z,19.90
2017-07-10T01:18:29.235Z,19.90
2017-07-10T01:20:58.217Z,19.90
2017-07-10T01:23:26.428Z,19.90
2017-07-10T01:25:54.629Z,19.90
2017-07-10T01:28:22.831Z,19.90
2017-07-10T01:30:51.239Z,19.80
2017-07-10T01:33:20.218Z,19.90
2017-07-10T01:35:48.423Z,19.90
2017-07-10T01:38:16.801Z,20.00
2017-07-10T01:40:45.162Z,20.00
2017-07-10T01:43:14.138Z,20.10
2017-07-10T01:45:42.342Z,20.10
2017-07-10T01:48:11.319Z,20.20
2017-07-10T01:50:39.520Z,20.10
2017-07-10T01:53:07.718Z,20.10
2017-07-10T01:55:36.065Z,20.10
2017-07-10T01:58:04.294Z,20.00
2017-07-10T02:00:32.629Z,20.10
2017-07-10T02:03:00.835Z,20.20
2017-07-10T02:05:29.176Z,20.10
2017-07-10T02:07:57.389Z,20.20
2017-07-10T02:10:25.590Z,20.20
2017-07-10T02:12:53.791Z,20.30
2017-07-10T02:15:22.083Z,20.30
2017-07-10T02:17:50.299Z,20.30
2017-07-10T02:20:18.505Z,20.20
2017-07-10T02:22:46.737Z,20.20
2017-07-10T02:25:14.983Z,20.20
2017-07-10T02:27:43.966Z,20.10
2017-07-10T02:30:12.175Z,20.10
2017-07-10T02:32:40.395Z,20.10
2017-07-10T02:35:08.597Z,20.10
2017-07-10T02:37:36.794Z,20.10
2017-07-10T02:40:05.272Z,20.10
2017-07-10T02:42:34.242Z,20.10
2017-07-10T02:45:02.449Z,20.10
2017-07-10T02:47:30.646Z,20.00
2017-07-10T02:49:58.994Z,19.90
2017-07-10T02:52:27.962Z,19.90
2017-07-10T02:54:56.167Z,19.90
2017-07-10T02:57:24.442Z,19.80
2017-07-10T02:59:52.639Z,19.80
2017-07-10T03:02:20.953Z,19.80
2017-07-10T03:04:49.156Z,19.80
2017-07-10T03:07:17.352Z,19.80
2017-07-10T03:09:45.611Z,19.90
2017-07-10T03:12:14.599Z,19.90
2017-07-10T03:14:42.815Z,19.80
2017-07-10T03:17:11.013Z,19.80
2017-07-10T03:19:39.214Z,19.70
2017-07-10T03:22:07.417Z,19.50
2017-07-10T03:24:36.397Z,19.40
2017-07-10T03:27:04.615Z,19.40
2017-07-10T03:29:32.811Z,19.50
2017-07-10T03:32:01.027Z,19.40
2017-07-10T03:34:29.229Z,19.50
2017-07-10T03:36:57.442Z,19.50
2017-07-10T03:39:25.802Z,19.30
2017-07-10T03:41:54.065Z,19.30
2017-07-10T03:44:22.319Z,19.30
2017-07-10T03:46:51.299Z,19.20
2017-07-10T03:49:19.513Z,19.20
2017-07-10T03:51:47.788Z,19.20
2017-07-10T03:54:16.081Z,19.30
2017-07-10T03:56:44.298Z,19.50
2017-07-10T03:59:12.507Z,19.50
2017-07-10T04:01:40.702Z,19.50
2017-07-10T04:04:08.919Z,19.70
2017-07-10T04:06:37.227Z,19.70
2017-07-10T04:09:06.196Z,19.50
2017-07-10T04:11:34.406Z,19.50
2017-07-10T04:14:03.492Z,19.50
2017-07-10T04:16:31.792Z,19.50
2017-07-10T04:18:59.991Z,19.60
2017-07-10T04:21:28.185Z,19.60
2017-07-10T04:23:56.397Z,19.60
2017-07-10T04:26:24.773Z,19.70
2017-07-10T04:28:52.959Z,19.80
2017-07-10T04:31:21.932Z,19.90
2017-07-10T04:33:50.337Z,19.80
2017-07-10T04:36:19.314Z,19.90
2017-07-10T04:38:47.718Z,19.90
2017-07-10T04:41:15.942Z,19.90
2017-07-10T04:43:44.267Z,19.80
2017-07-10T04:46:13.234Z,20.00
2017-07-10T04:48:41.524Z,20.00
2017-07-10T04:51:09.919Z,20.10
2017-07-10T04:53:38.903Z,20.20
2017-07-10T04:56:07.094Z,20.20
2017-07-10T04:58:35.397Z,20.30
2017-07-10T05:01:03.592Z,20.40
2017-07-10T05:03:31.804Z,20.60
2017-07-10T05:06:00.010Z,20.60
2017-07-10T05:08:28.253Z,20.80
2017-07-10T05:10:56.466Z,20.70
2017-07-10T05:13:24.822Z,20.70
2017-07-10T05:15:53.789Z,21.00
2017-07-10T05:18:22.096Z,20.90
2017-07-10T05:20:50.310Z,20.80
2017-07-10T05:23:18.563Z,20.80
2017-07-10T05:25:46.844Z,20.70
2017-07-10T05:28:15.142Z,20.70
2017-07-10T05:30:43.369Z,20.70
2017-07-10T05:33:11.652Z,20.60
2017-07-10T05:35:39.863Z,20.70
2017-07-10T05:38:08.072Z,20.90
2017-07-10T05:40:36.267Z,21.00
2017-07-10T05:43:04.585Z,21.10
2017-07-10T05:45:32.806Z,21.20
2017-07-10T05:48:01.009Z,21.10
2017-07-10T05:50:29.220Z,21.30
2017-07-10T05:52:57.419Z,21.20
2017-07-10T05:55:25.845Z,21.30
2017-07-10T05:57:54.248Z,21.20
2017-07-10T06:00:22.558Z,21.30
2017-07-10T06:02:50.778Z,21.50
2017-07-10T06:05:19.158Z,21.40
2017-07-10T06:07:47.374Z,21.60
2017-07-10T06:10:15.571Z,21.70
2017-07-10T06:12:43.798Z,21.70
2017-07-10T06:15:11.998Z,21.80
2017-07-10T06:17:40.195Z,21.80
2017-07-10T06:20:08.425Z,21.80
2017-07-10T06:22:36.617Z,21.90
2017-07-10T06:25:04.826Z,21.90
2017-07-10T06:27:33.033Z,22.00
2017-07-10T06:30:01.248Z,22.10
2017-07-10T06:32:29.502Z,22.10
2017-07-10T06:34:58.462Z,22.20
2017-07-10T06:37:26.692Z,22.10
2017-07-10T06:39:54.949Z,22.20
2017-07-10T06:42:23.927Z,22.20
2017-07-10T06:44:52.143Z,22.20
2017-07-10T06:47:20.607Z,22.10
2017-07-10T06:49:48.897Z,21.90
2017-07-10T06:52:17.098Z,21.90
2017-07-10T06:54:45.323Z,21.90
2017-07-10T06:57:13.536Z,22.00
2017-07-10T06:59:41.784Z,21.90
2017-07-10T07:02:10.071Z,22.00
2017-07-10T07:04:39.049Z,21.90
2017-07-10T07:07:07.277Z,21.90
2017-07-10T07:09:35.519Z,21.90
2017-07-10T07:12:03.823Z,21.90
2017-07-10T07:14:32.068Z,21.80
2017-07-10T07:17:01.054Z,21.90
2017-07-10T07:19:29.242Z,21.90
2017-07-10T07:21:58.215Z,22.00
2017-07-10T07:24:26.414Z,22.00
2017-07-10T07:26:54.632Z,22.20
2017-07-10T07:29:22.826Z,22.30
2017-07-10T07:31:51.040Z,22.30
2017-07-10T07:34:20.017Z,22.70
2017-07-10T07:36:48.230Z,22.70
2017-07-10T07:39:16.443Z,22.80
2017-07-10T07:41:44.661Z,22.80
2017-07-10T07:44:12.868Z,23.00
2017-07-10T07:46:41.091Z,23.30
2017-07-10T07:49:09.307Z,23.50
2017-07-10T07:51:37.632Z,23.70
2017-07-10T07:54:06.006Z,23.80
2017-07-10T07:56:34.215Z,24.20
2017-07-10T07:59:03.182Z,27.70
2017-07-10T08:01:31.403Z,27.60
2017-07-10T08:03:59.619Z,29.10
2017-07-10T08:06:27.830Z,29.70
2017-07-10T08:08:56.036Z,29.60
2017-07-10T08:11:24.321Z,29.10
2017-07-10T08:13:52.524Z,29.70
2017-07-10T08:16:21.062Z,30.10
2017-07-10T08:18:50.044Z,29.50
2017-07-10T08:21:18.237Z,29.40
2017-07-10T08:23:46.449Z,28.50
2017-07-10T08:26:14.666Z,28.10
2017-07-10T08:28:42.870Z,27.90
2017-07-10T08:31:11.156Z,27.80
2017-07-10T08:33:39.370Z,27.60
2017-07-10T08:36:07.695Z,27.10
2017-07-10T08:38:35.919Z,26.50
2017-07-10T08:41:04.135Z,26.10
2017-07-10T08:43:32.353Z,25.50
2017-07-10T08:46:00.593Z,25.00
2017-07-10T08:48:29.603Z,24.50
2017-07-10T08:50:57.810Z,24.50
2017-07-10T08:53:26.037Z,24.40
2017-07-10T08:55:54.257Z,25.00
2017-07-10T08:58:22.475Z,25.40
2017-07-10T09:00:50.674Z,26.10
2017-07-10T09:03:19.650Z,27.30
2017-07-10T09:05:47.872Z,27.20
2017-07-10T09:08:16.169Z,27.50
2017-07-10T09:10:44.371Z,28.20
2017-07-10T09:13:12.586Z,28.30
2017-07-10T09:15:40.787Z,28.30
2017-07-10T09:18:08.981Z,28.00
2017-07-10T09:20:37.216Z,27.60
2017-07-10T09:23:05.424Z,27.80
2017-07-10T09:25:33.679Z,27.90
2017-07-10T09:28:01.946Z,28.40
2017-07-10T09:30:30.204Z,29.30
2017-07-10T09:32:59.228Z,31.10
2017-07-10T09:35:27.464Z,31.10
2017-07-10T09:37:55.669Z,31.50
2017-07-10T09:40:23.946Z,30.60
2017-07-10T09:42:52.223Z,29.80
2017-07-10T09:45:20.434Z,28.90
2017-07-10T09:47:48.752Z,28.30
2017-07-10T09:50:17.041Z,27.90
2017-07-10T09:52:46.006Z,26.90
2017-07-10T09:55:14.221Z,26.90
2017-07-10T09:57:42.450Z,26.80
2017-07-10T10:00:10.789Z,26.90
2017-07-10T10:02:38.988Z,27.00
2017-07-10T10:05:07.194Z,27.00
2017-07-10T10:07:35.429Z,26.60
2017-07-10T10:10:03.656Z,26.60
2017-07-10T10:12:31.865Z,26.40
2017-07-10T10:15:00.101Z,26.20
2017-07-10T10:17:28.323Z,26.20
2017-07-10T10:19:56.509Z,26.60
2017-07-10T10:22:24.866Z,27.30
2017-07-10T10:24:53.133Z,27.60
2017-07-10T10:27:22.115Z,28.90
2017-07-10T10:29:50.323Z,28.90
2017-07-10T10:32:18.603Z,30.50
2017-07-10T10:34:46.874Z,31.60
2017-07-10T10:37:15.088Z,32.00
2017-07-10T10:39:43.288Z,33.30
2017-07-10T10:42:11.506Z,34.60
2017-07-10T10:44:39.751Z,34.40
2017-07-10T10:47:07.956Z,33.40
2017-07-10T10:49:36.172Z,32.30
2017-07-10T10:52:04.375Z,31.80
2017-07-10T10:54:32.589Z,30.90
2017-07-10T10:57:00.796Z,30.70
2017-07-10T10:59:29.026Z,29.70
2017-07-10T11:01:58.023Z,27.90
2017-07-10T11:04:26.212Z,27.80
2017-07-10T11:06:54.495Z,27.20
2017-07-10T11:09:22.754Z,26.80
2017-07-10T11:11:51.027Z,26.80
2017-07-10T11:14:20.001Z,27.70
2017-07-10T11:16:48.217Z,27.60
2017-07-10T11:19:16.427Z,28.00
2017-07-10T11:21:44.639Z,28.10
2017-07-10T11:24:12.842Z,28.00
2017-07-10T11:26:41.081Z,27.60
2017-07-10T11:29:09.246Z,27.50
2017-07-10T11:31:37.450Z,27.30
2017-07-10T11:34:06.422Z,26.70
2017-07-10T11:36:34.627Z,26.70
2017-07-10T11:39:02.827Z,26.60
2017-07-10T11:41:31.182Z,26.60
2017-07-10T11:44:00.152Z,26.70
2017-07-10T11:46:28.354Z,26.70
2017-07-10T11:48:56.562Z,26.80
2017-07-10T11:51:24.782Z,27.00
2017-07-10T11:53:52.983Z,27.10
2017-07-10T11:56:21.286Z,27.40
2017-07-10T11:58:49.482Z,27.70
2017-07-10T12:01:17.696Z,28.10
2017-07-10T12:03:45.899Z,28.50
2017-07-10T12:06:14.113Z,28.20
2017-07-10T12:08:42.341Z,28.30
2017-07-10T12:11:10.531Z,28.30
2017-07-10T12:13:38.743Z,27.60
2017-07-10T12:16:06.947Z,26.30
2017-07-10T12:18:35.153Z,25.50
2017-07-10T12:21:03.387Z,25.10
2017-07-10T12:23:31.585Z,24.70
2017-07-10T12:25:59.796Z,25.00
2017-07-10T12:28:27.995Z,25.50
2017-07-10T12:30:56.351Z,26.20
2017-07-10T12:33:25.297Z,26.70
2017-07-10T12:35:53.498Z,26.60
2017-07-10T12:38:22.470Z,26.30
2017-07-10T12:40:50.706Z,26.30
2017-07-10T12:43:18.913Z,25.90
2017-07-10T12:45:47.136Z,25.70
2017-07-10T12:48:15.327Z,25.50
2017-07-10T12:50:43.590Z,25.10
2017-07-10T12:53:11.805Z,24.30
2017-07-10T12:55:40.123Z,24.10
2017-07-10T12:58:09.106Z,24.40
2017-07-10T13:00:37.314Z,24.40
2017-07-10T13:03:05.611Z,24.80
2017-07-10T13:05:33.849Z,25.20
2017-07-10T13:08:02.808Z,25.80
2017-07-10T13:10:31.022Z,25.80
2017-07-10T13:12:59.244Z,25.80
2017-07-10T13:15:27.449Z,26.00
2017-07-10T13:17:55.652Z,26.20
2017-07-10T13:20:24.128Z,26.60
2017-07-10T13:22:52.392Z,26.30
2017-07-10T13:25:20.592Z,26.50
2017-07-10T13:27:48.845Z,26.40
2017-07-10T13:30:17.238Z,25.90
2017-07-10T13:32:45.530Z,25.80
2017-07-10T13:35:13.744Z,25.80
2017-07-10T13:37:41.939Z,26.00
2017-07-10T13:40:10.150Z,26.30
2017-07-10T13:42:38.376Z,26.40
2017-07-10T13:45:06.718Z,26.10
2017-07-10T13:47:34.982Z,26.00
2017-07-10T13:50:03.969Z,26.70
2017-07-10T13:52:32.182Z,26.60
2017-07-10T13:55:00.378Z,27.30
2017-07-10T13:57:28.587Z,27.70
2017-07-10T13:59:56.811Z,27.60
2017-07-10T14:02:25.049Z,27.20
2017-07-10T14:04:54.153Z,26.50
2017-07-10T14:07:23.124Z,25.90
2017-07-10T14:09:51.335Z,25.90
2017-07-10T14:12:19.602Z,25.90
2017-07-10T14:14:48.579Z,25.80
2017-07-10T14:17:16.906Z,25.70
2017-07-10T14:19:45.107Z,26.00
2017-07-10T14:22:13.324Z,26.10
2017-07-10T14:24:41.583Z,26.30
2017-07-10T14:27:09.790Z,26.40
2017-07-10T14:29:37.993Z,26.50
2017-07-10T14:32:06.205Z,26.40
2017-07-10T14:34:34.502Z,26.20
2017-07-10T14:37:03.483Z,25.80
2017-07-10T14:39:31.676Z,25.80
2017-07-10T14:42:00.661Z,25.50
2017-07-10T14:44:28.887Z,25.50
2017-07-10T14:46:57.140Z,25.60
2017-07-10T14:49:25.334Z,25.80
2017-07-10T14:51:53.554Z,25.80
2017-07-10T14:54:21.767Z,26.00
2017-07-10T14:56:50.026Z,26.00
2017-07-10T14:59:19.002Z,25.80
2017-07-10T15:01:47.219Z,25.80
2017-07-10T15:04:15.457Z,25.60
2017-07-10T15:06:43.657Z,25.50
2017-07-10T15:09:12.039Z,25.50
2017-07-10T15:11:40.315Z,25.30
2017-07-10T15:14:08.546Z,25.30
2017-07-10T15:16:36.778Z,25.40
2017-07-10T15:19:04.991Z,25.50
2017-07-10T15:21:33.198Z,25.60
2017-07-10T15:24:01.404Z,25.60
2017-07-10T15:26:29.620Z,25.50
2017-07-10T15:28:57.824Z,25.60
2017-07-10T15:31:26.126Z,25.50
2017-07-10T15:33:54.337Z,25.40
2017-07-10T15:36:22.555Z,25.50
2017-07-10T15:38:50.756Z,25.40
2017-07-10T15:41:19.714Z,25.30
2017-07-10T15:43:47.957Z,25.30
2017-07-10T15:46:16.198Z,25.40
2017-07-10T15:48:44.428Z,25.50
2017-07-10T15:51:12.747Z,25.50
2017-07-10T15:53:41.837Z,25.50
2017-07-10T15:56:10.802Z,25.40
2017-07-10T15:58:39.018Z,25.40
2017-07-10T16:01:07.242Z,25.40
2017-07-10T16:03:35.458Z,25.30
2017-07-10T16:06:03.676Z,25.30
2017-07-10T16:08:32.123Z,25.10
2017-07-10T16:11:00.406Z,25.00
2017-07-10T16:13:29.511Z,24.90
2017-07-10T16:15:58.495Z,24.80
2017-07-10T16:18:26.704Z,24.70
2017-07-10T16:20:55.700Z,24.40
2017-07-10T16:23:24.078Z,24.40
2017-07-10T16:25:52.507Z,24.40
2017-07-10T16:28:20.717Z,24.40
2017-07-10T16:30:48.930Z,24.40
2017-07-10T16:33:17.146Z,24.40
2017-07-10T16:35:45.438Z,24.40
2017-07-10T16:38:14.426Z,24.60
2017-07-10T16:40:42.812Z,24.60
2017-07-10T16:43:11.083Z,24.70
2017-07-10T16:45:39.376Z,24.80
2017-07-10T16:48:07.613Z,24.80
2017-07-10T16:50:35.828Z,24.70
2017-07-10T16:53:04.023Z,24.50
2017-07-10T16:55:32.235Z,24.40
2017-07-10T16:58:00.438Z,24.30
2017-07-10T17:00:28.826Z,24.30
2017-07-10T17:02:57.105Z,24.20
2017-07-10T17:05:26.061Z,24.00
2017-07-10T17:07:54.271Z,23.90
2017-07-10T17:10:22.501Z,23.90
2017-07-10T17:12:50.713Z,23.80
2017-07-10T17:15:18.922Z,23.80
2017-07-10T17:17:47.148Z,23.80
2017-07-10T17:20:15.427Z,23.60
2017-07-10T17:22:43.587Z,23.50
2017-07-10T17:25:12.011Z,23.50
2017-07-10T17:27:40.988Z,23.20
2017-07-10T17:30:09.330Z,23.20
2017-07-10T17:32:37.540Z,23.30
2017-07-10T17:35:05.733Z,23.20
2017-07-10T17:37:34.719Z,23.30
2017-07-10T17:40:02.935Z,23.30
2017-07-10T17:42:31.125Z,23.40
2017-07-10T17:44:59.335Z,23.40
2017-07-10T17:47:27.576Z,23.40
2017-07-10T17:49:55.778Z,23.30
2017-07-10T17:52:23.994Z,23.40
2017-07-10T17:54:52.211Z,23.30
2017-07-10T17:57:20.429Z,23.20
2017-07-10T17:59:49.560Z,23.10
2017-07-10T18:02:17.770Z,23.10
2017-07-10T18:04:46.143Z,23.00
2017-07-10T18:07:14.392Z,22.80
2017-07-10T18:09:42.621Z,22.70
2017-07-10T18:12:10.838Z,22.60
2017-07-10T18:14:39.051Z,22.50
2017-07-10T18:17:07.272Z,22.40
2017-07-10T18:19:35.565Z,22.40
2017-07-10T18:22:03.766Z,22.50
2017-07-10T18:24:32.012Z,22.40
2017-07-10T18:27:00.275Z,22.40
2017-07-10T18:29:28.442Z,22.20
2017-07-10T18:31:56.663Z,22.30
2017-07-10T18:34:24.863Z,22.30
2017-07-10T18:36:53.135Z,22.40
2017-07-10T18:39:21.333Z,22.40
2017-07-10T18:41:49.725Z,22.40
2017-07-10T18:44:17.905Z,22.40
2017-07-10T18:46:46.909Z,22.40
2017-07-10T18:49:15.123Z,22.40
2017-07-10T18:51:43.325Z,22.30
2017-07-10T18:54:11.665Z,22.00
2017-07-10T18:56:40.231Z,22.10
2017-07-10T18:59:08.429Z,22.10
2017-07-10T19:01:36.634Z,22.00
2017-07-10T19:04:04.869Z,21.80
2017-07-10T19:06:33.284Z,21.60
2017-07-10T19:09:01.487Z,21.40
2017-07-10T19:11:30.617Z,21.40
2017-07-10T19:13:58.806Z,21.30
2017-07-10T19:16:27.094Z,21.20
2017-07-10T19:18:55.327Z,21.10
2017-07-10T19:21:23.509Z,21.00
2017-07-10T19:23:52.511Z,20.90
2017-07-10T19:26:20.735Z,20.90
2017-07-10T19:28:48.946Z,20.90
2017-07-10T19:31:17.162Z,20.80
2017-07-10T19:33:45.477Z,20.70
2017-07-10T19:36:13.689Z,20.60
2017-07-10T19:38:41.932Z,20.60
2017-07-10T19:41:10.253Z,20.60
2017-07-10T19:43:39.228Z,20.50
2017-07-10T19:46:07.450Z,20.50
2017-07-10T19:48:35.652Z,20.30
2017-07-10T19:51:03.881Z,20.30
2017-07-10T19:53:32.078Z,20.30
2017-07-10T19:56:00.294Z,20.10
2017-07-10T19:58:28.491Z,20.30
2017-07-10T20:00:57.535Z,20.30
2017-07-10T20:03:25.810Z,20.40
2017-07-10T20:05:54.045Z,20.40
2017-07-10T20:08:23.026Z,20.30
2017-07-10T20:10:51.229Z,20.30
2017-07-10T20:13:19.505Z,20.30
2017-07-10T20:15:48.498Z,20.20
2017-07-10T20:18:16.881Z,20.20
2017-07-10T20:20:45.135Z,20.20
2017-07-10T20:23:13.514Z,20.20
2017-07-10T20:25:41.830Z,20.10
2017-07-10T20:28:10.090Z,20.10
2017-07-10T20:30:38.354Z,20.00
2017-07-10T20:33:06.650Z,20.00
2017-07-10T20:35:35.621Z,19.90
2017-07-10T20:38:03.849Z,19.90
2017-07-10T20:40:32.102Z,20.00
2017-07-10T20:43:00.452Z,20.10
2017-07-10T20:45:28.645Z,20.20
2017-07-10T20:47:56.922Z,20.10
2017-07-10T20:50:25.207Z,20.00
2017-07-10T20:52:53.417Z,19.90
2017-07-10T20:55:21.643Z,19.80
2017-07-10T20:57:49.850Z,19.70
2017-07-10T21:00:18.053Z,19.70
2017-07-10T21:02:46.286Z,19.80
2017-07-10T21:05:14.578Z,19.80
2017-07-10T21:07:42.732Z,19.90
2017-07-10T21:10:11.724Z,20.00
2017-07-10T21:12:39.943Z,19.90
2017-07-10T21:15:08.176Z,20.00
2017-07-10T21:17:37.162Z,19.80
2017-07-10T21:20:05.560Z,19.80
2017-07-10T21:22:34.535Z,19.60
2017-07-10T21:25:02.746Z,19.60
2017-07-10T21:27:30.962Z,19.60
2017-07-10T21:30:00.477Z,19.60
2017-07-10T21:32:29.615Z,19.60
2017-07-10T21:34:59.098Z,19.60
2017-07-10T21:37:27.297Z,19.50
2017-07-10T21:39:56.282Z,19.50
2017-07-10T21:42:24.691Z,19.50
2017-07-10T21:44:52.982Z,19.50
2017-07-10T21:47:21.535Z,19.50
2017-07-10T21:49:49.745Z,19.50
2017-07-10T21:52:17.960Z,19.50
2017-07-10T21:54:46.167Z,19.50
2017-07-10T21:57:14.561Z,19.50
2017-07-10T21:59:42.758Z,19.50
2017-07-10T22:02:10.961Z,19.40
2017-07-10T22:04:39.377Z,19.30
2017-07-10T22:07:07.647Z,19.30
2017-07-10T22:09:36.756Z,19.30
2017-07-10T22:12:05.736Z,19.20
2017-07-10T22:14:34.038Z,19.20
2017-07-10T22:17:02.247Z,19.20
2017-07-10T22:19:30.470Z,19.20
2017-07-10T22:21:59.454Z,19.40
2017-07-10T22:24:27.650Z,19.30
2017-07-10T22:26:56.029Z,19.30
2017-07-10T22:29:24.229Z,19.20
2017-07-10T22:31:52.471Z,19.30
2017-07-10T22:34:21.466Z,19.30
2017-07-10T22:36:49.669Z,19.30
2017-07-10T22:39:17.877Z,19.30
2017-07-10T22:41:46.212Z,19.30
2017-07-10T22:44:15.184Z,19.10
2017-07-10T22:46:43.378Z,19.10
2017-07-10T22:49:12.376Z,19.00
2017-07-10T22:51:40.552Z,19.00
2017-07-10T22:54:09.539Z,19.00
2017-07-10T22:56:37.746Z,19.00
2017-07-10T22:59:06.206Z,19.20
2017-07-10T23:01:35.161Z,19.10
2017-07-10T23:04:03.403Z,19.10
2017-07-10T23:06:31.658Z,19.00
2017-07-10T23:08:59.937Z,19.00
2017-07-10T23:11:28.149Z,19.00
2017-07-10T23:13:56.368Z,19.00
2017-07-10T23:16:24.577Z,18.90
2017-07-10T23:18:52.785Z,18.90
2017-07-10T23:21:20.988Z,18.90
2017-07-10T23:23:49.226Z,19.00
2017-07-10T23:26:17.434Z,18.90
2017-07-10T23:28:45.634Z,18.90
2017-07-10T23:31:13.845Z,18.90
2017-07-10T23:33:42.114Z,19.00
2017-07-10T23:36:10.366Z,19.00
2017-07-10T23:38:38.566Z,19.10
2017-07-10T23:41:06.771Z,19.00
2017-07-10T23:43:34.994Z,19.10
2017-07-10T23:46:03.281Z,19.00
2017-07-10T23:48:31.755Z,19.10
2017-07-10T23:50:59.966Z,19.10
2017-07-10T23:53:28.156Z,19.10
2017-07-10T23:55:56.388Z,19.00
2017-07-10T23:58:24.583Z,18.90
